sensor_id;sensor_type;location;lat;lon;timestamp;P1;durP1;ratioP1;P2;durP2;ratioP2
67156;SDS011;54086;50.126;8.710;2023-05-07T00:02:21;6.15;;;2.60;;
67156;SDS011;54086;50.126;8.710;2023-05-07T00:04:47;5.75;;;2.25;;
67156;SDS011;54086;50.126;8.710;2023-05-07T00:07:13;6.17;;;2.30;;
67156;SDS011;54086;50.126;8.710;2023-05-07T00:09:38;7.63;;;2.43;;
67156;SDS011;54086;50.126;8.710;2023-05-07T00:12:04;6.63;;;2.63;;
67156;SDS011;54086;50.126;8.710;2023-05-07T00:14:30;6.45;;;2.08;;
67156;SDS011;54086;50.126;8.710;2023-05-07T00:16:56;7.10;;;2.10;;
67156;SDS011;54086;50.126;8.710;2023-05-07T00:19:21;7.20;;;2.53;;
67156;SDS011;54086;50.126;8.710;2023-05-07T00:21:46;5.87;;;2.27;;
67156;SDS011;54086;50.126;8.710;2023-05-07T00:24:12;6.13;;;2.40;;
67156;SDS011;54086;50.126;8.710;2023-05-07T00:26:37;7.50;;;2.70;;
67156;SDS011;54086;50.126;8.710;2023-05-07T00:29:03;5.47;;;2.20;;
67156;SDS011;54086;50.126;8.710;2023-05-07T00:31:28;6.80;;;2.17;;
67156;SDS011;54086;50.126;8.710;2023-05-07T00:33:54;6.17;;;2.20;;
67156;SDS011;54086;50.126;8.710;2023-05-07T00:36:19;7.13;;;2.53;;
67156;SDS011;54086;50.126;8.710;2023-05-07T00:38:44;5.88;;;2.10;;
67156;SDS011;54086;50.126;8.710;2023-05-07T00:41:10;6.50;;;2.50;;
67156;SDS011;54086;50.126;8.710;2023-05-07T00:43:35;7.33;;;2.57;;
67156;SDS011;54086;50.126;8.710;2023-05-07T00:46:00;5.80;;;2.50;;
67156;SDS011;54086;50.126;8.710;2023-05-07T00:48:26;5.87;;;2.17;;
67156;SDS011;54086;50.126;8.710;2023-05-07T00:50:52;6.15;;;2.40;;
67156;SDS011;54086;50.126;8.710;2023-05-07T00:53:18;6.03;;;2.50;;
67156;SDS011;54086;50.126;8.710;2023-05-07T00:55:43;6.07;;;2.10;;
67156;SDS011;54086;50.126;8.710;2023-05-07T00:58:09;6.88;;;2.50;;
67156;SDS011;54086;50.126;8.710;2023-05-07T01:00:35;6.20;;;2.67;;
67156;SDS011;54086;50.126;8.710;2023-05-07T01:03:00;5.47;;;2.20;;
67156;SDS011;54086;50.126;8.710;2023-05-07T01:05:26;5.43;;;2.57;;
67156;SDS011;54086;50.126;8.710;2023-05-07T01:07:53;5.47;;;2.50;;
67156;SDS011;54086;50.126;8.710;2023-05-07T01:10:20;6.68;;;2.50;;
67156;SDS011;54086;50.126;8.710;2023-05-07T01:12:47;6.30;;;2.30;;
67156;SDS011;54086;50.126;8.710;2023-05-07T01:15:14;6.65;;;2.33;;
67156;SDS011;54086;50.126;8.710;2023-05-07T01:17:41;6.23;;;2.40;;
67156;SDS011;54086;50.126;8.710;2023-05-07T01:20:09;6.18;;;2.33;;
67156;SDS011;54086;50.126;8.710;2023-05-07T01:22:35;6.25;;;2.40;;
67156;SDS011;54086;50.126;8.710;2023-05-07T01:25:03;6.90;;;2.42;;
67156;SDS011;54086;50.126;8.710;2023-05-07T01:27:29;6.05;;;2.45;;
67156;SDS011;54086;50.126;8.710;2023-05-07T01:29:55;6.10;;;2.50;;
67156;SDS011;54086;50.126;8.710;2023-05-07T01:32:33;6.85;;;2.35;;
67156;SDS011;54086;50.126;8.710;2023-05-07T01:35:07;5.78;;;2.20;;
67156;SDS011;54086;50.126;8.710;2023-05-07T01:37:35;6.17;;;2.50;;
67156;SDS011;54086;50.126;8.710;2023-05-07T01:40:01;6.78;;;2.30;;
67156;SDS011;54086;50.126;8.710;2023-05-07T01:42:27;6.65;;;2.40;;
67156;SDS011;54086;50.126;8.710;2023-05-07T01:44:54;6.75;;;2.95;;
67156;SDS011;54086;50.126;8.710;2023-05-07T01:47:20;7.80;;;2.20;;
67156;SDS011;54086;50.126;8.710;2023-05-07T01:49:46;5.85;;;2.45;;
67156;SDS011;54086;50.126;8.710;2023-05-07T01:52:13;6.40;;;2.40;;
67156;SDS011;54086;50.126;8.710;2023-05-07T01:54:39;6.07;;;2.30;;
67156;SDS011;54086;50.126;8.710;2023-05-07T01:57:04;6.05;;;2.20;;
67156;SDS011;54086;50.126;8.710;2023-05-07T01:59:29;5.87;;;2.27;;
67156;SDS011;54086;50.126;8.710;2023-05-07T02:01:56;5.60;;;2.65;;
67156;SDS011;54086;50.126;8.710;2023-05-07T02:04:21;5.90;;;2.47;;
67156;SDS011;54086;50.126;8.710;2023-05-07T02:06:47;7.30;;;2.63;;
67156;SDS011;54086;50.126;8.710;2023-05-07T02:09:12;5.40;;;2.03;;
67156;SDS011;54086;50.126;8.710;2023-05-07T02:11:40;6.15;;;2.47;;
67156;SDS011;54086;50.126;8.710;2023-05-07T02:14:05;6.20;;;2.70;;
67156;SDS011;54086;50.126;8.710;2023-05-07T02:16:30;6.60;;;2.35;;
67156;SDS011;54086;50.126;8.710;2023-05-07T02:18:56;6.13;;;2.47;;
67156;SDS011;54086;50.126;8.710;2023-05-07T02:21:23;7.28;;;2.67;;
67156;SDS011;54086;50.126;8.710;2023-05-07T02:23:48;7.03;;;2.80;;
67156;SDS011;54086;50.126;8.710;2023-05-07T02:26:14;6.73;;;2.83;;
67156;SDS011;54086;50.126;8.710;2023-05-07T02:28:39;7.17;;;2.40;;
67156;SDS011;54086;50.126;8.710;2023-05-07T02:31:05;6.07;;;2.23;;
67156;SDS011;54086;50.126;8.710;2023-05-07T02:33:30;6.07;;;2.20;;
67156;SDS011;54086;50.126;8.710;2023-05-07T02:35:56;5.93;;;2.53;;
67156;SDS011;54086;50.126;8.710;2023-05-07T02:38:22;5.93;;;2.33;;
67156;SDS011;54086;50.126;8.710;2023-05-07T02:40:47;7.00;;;2.40;;
67156;SDS011;54086;50.126;8.710;2023-05-07T02:43:16;6.47;;;2.20;;
67156;SDS011;54086;50.126;8.710;2023-05-07T02:45:42;5.97;;;2.50;;
67156;SDS011;54086;50.126;8.710;2023-05-07T02:48:08;6.50;;;3.00;;
67156;SDS011;54086;50.126;8.710;2023-05-07T02:50:33;6.93;;;2.23;;
67156;SDS011;54086;50.126;8.710;2023-05-07T02:52:59;6.77;;;2.30;;
67156;SDS011;54086;50.126;8.710;2023-05-07T02:55:24;6.25;;;2.60;;
67156;SDS011;54086;50.126;8.710;2023-05-07T02:57:50;7.13;;;2.20;;
67156;SDS011;54086;50.126;8.710;2023-05-07T03:00:16;5.85;;;2.35;;
67156;SDS011;54086;50.126;8.710;2023-05-07T03:02:43;5.73;;;2.30;;
67156;SDS011;54086;50.126;8.710;2023-05-07T03:05:15;6.63;;;2.58;;
67156;SDS011;54086;50.126;8.710;2023-05-07T03:07:40;6.43;;;2.47;;
67156;SDS011;54086;50.126;8.710;2023-05-07T03:10:12;6.20;;;2.55;;
67156;SDS011;54086;50.126;8.710;2023-05-07T03:12:37;6.38;;;2.40;;
67156;SDS011;54086;50.126;8.710;2023-05-07T03:15:03;6.70;;;2.33;;
67156;SDS011;54086;50.126;8.710;2023-05-07T03:17:29;6.55;;;2.22;;
67156;SDS011;54086;50.126;8.710;2023-05-07T03:19:55;7.03;;;2.50;;
67156;SDS011;54086;50.126;8.710;2023-05-07T03:22:21;7.57;;;2.80;;
67156;SDS011;54086;50.126;8.710;2023-05-07T03:24:46;6.07;;;2.10;;
67156;SDS011;54086;50.126;8.710;2023-05-07T03:27:12;5.53;;;2.17;;
67156;SDS011;54086;50.126;8.710;2023-05-07T03:29:37;5.60;;;2.37;;
67156;SDS011;54086;50.126;8.710;2023-05-07T03:32:03;6.65;;;2.70;;
67156;SDS011;54086;50.126;8.710;2023-05-07T03:34:29;6.60;;;2.97;;
67156;SDS011;54086;50.126;8.710;2023-05-07T03:36:54;7.17;;;2.77;;
67156;SDS011;54086;50.126;8.710;2023-05-07T03:39:20;5.95;;;2.22;;
67156;SDS011;54086;50.126;8.710;2023-05-07T03:41:46;5.35;;;2.20;;
67156;SDS011;54086;50.126;8.710;2023-05-07T03:44:12;6.67;;;2.60;;
67156;SDS011;54086;50.126;8.710;2023-05-07T03:46:37;7.97;;;2.90;;
67156;SDS011;54086;50.126;8.710;2023-05-07T03:49:03;6.40;;;2.73;;
67156;SDS011;54086;50.126;8.710;2023-05-07T03:51:29;8.27;;;2.90;;
67156;SDS011;54086;50.126;8.710;2023-05-07T03:53:55;6.60;;;2.50;;
67156;SDS011;54086;50.126;8.710;2023-05-07T03:56:22;6.30;;;2.65;;
67156;SDS011;54086;50.126;8.710;2023-05-07T03:58:51;5.63;;;2.37;;
67156;SDS011;54086;50.126;8.710;2023-05-07T04:01:16;7.63;;;3.42;;
67156;SDS011;54086;50.126;8.710;2023-05-07T04:03:42;6.33;;;2.40;;
67156;SDS011;54086;50.126;8.710;2023-05-07T04:06:07;6.03;;;2.73;;
67156;SDS011;54086;50.126;8.710;2023-05-07T04:08:33;7.60;;;2.80;;
67156;SDS011;54086;50.126;8.710;2023-05-07T04:10:58;6.93;;;2.90;;
67156;SDS011;54086;50.126;8.710;2023-05-07T04:13:24;6.57;;;2.77;;
67156;SDS011;54086;50.126;8.710;2023-05-07T04:15:50;7.38;;;2.80;;
67156;SDS011;54086;50.126;8.710;2023-05-07T04:18:16;7.68;;;3.33;;
67156;SDS011;54086;50.126;8.710;2023-05-07T04:20:42;6.00;;;2.77;;
67156;SDS011;54086;50.126;8.710;2023-05-07T04:23:07;6.60;;;2.97;;
67156;SDS011;54086;50.126;8.710;2023-05-07T04:25:33;7.00;;;2.85;;
67156;SDS011;54086;50.126;8.710;2023-05-07T04:27:59;6.30;;;2.80;;
67156;SDS011;54086;50.126;8.710;2023-05-07T04:30:24;6.38;;;2.85;;
67156;SDS011;54086;50.126;8.710;2023-05-07T04:32:50;7.30;;;2.53;;
67156;SDS011;54086;50.126;8.710;2023-05-07T04:35:15;7.30;;;2.97;;
67156;SDS011;54086;50.126;8.710;2023-05-07T04:37:41;8.20;;;3.70;;
67156;SDS011;54086;50.126;8.710;2023-05-07T04:40:08;7.05;;;2.85;;
67156;SDS011;54086;50.126;8.710;2023-05-07T04:42:34;6.60;;;2.90;;
67156;SDS011;54086;50.126;8.710;2023-05-07T04:44:59;7.03;;;3.37;;
67156;SDS011;54086;50.126;8.710;2023-05-07T04:47:27;7.00;;;2.80;;
67156;SDS011;54086;50.126;8.710;2023-05-07T04:49:52;6.45;;;3.20;;
67156;SDS011;54086;50.126;8.710;2023-05-07T04:52:17;8.03;;;2.90;;
67156;SDS011;54086;50.126;8.710;2023-05-07T04:54:43;9.73;;;3.10;;
67156;SDS011;54086;50.126;8.710;2023-05-07T04:57:08;6.60;;;2.97;;
67156;SDS011;54086;50.126;8.710;2023-05-07T04:59:34;6.75;;;2.60;;
67156;SDS011;54086;50.126;8.710;2023-05-07T05:01:59;6.80;;;3.13;;
67156;SDS011;54086;50.126;8.710;2023-05-07T05:04:25;8.43;;;3.10;;
67156;SDS011;54086;50.126;8.710;2023-05-07T05:06:50;6.53;;;2.75;;
67156;SDS011;54086;50.126;8.710;2023-05-07T05:09:16;6.40;;;2.83;;
67156;SDS011;54086;50.126;8.710;2023-05-07T05:11:41;6.80;;;2.93;;
67156;SDS011;54086;50.126;8.710;2023-05-07T05:14:07;7.25;;;3.10;;
67156;SDS011;54086;50.126;8.710;2023-05-07T05:16:32;6.23;;;2.63;;
67156;SDS011;54086;50.126;8.710;2023-05-07T05:18:57;8.73;;;3.20;;
67156;SDS011;54086;50.126;8.710;2023-05-07T05:21:23;7.07;;;3.13;;
67156;SDS011;54086;50.126;8.710;2023-05-07T05:23:48;7.50;;;3.20;;
67156;SDS011;54086;50.126;8.710;2023-05-07T05:26:14;5.97;;;2.93;;
67156;SDS011;54086;50.126;8.710;2023-05-07T05:28:39;8.43;;;3.23;;
67156;SDS011;54086;50.126;8.710;2023-05-07T05:31:05;6.90;;;3.23;;
67156;SDS011;54086;50.126;8.710;2023-05-07T05:33:31;7.00;;;3.20;;
67156;SDS011;54086;50.126;8.710;2023-05-07T05:35:56;6.47;;;3.03;;
67156;SDS011;54086;50.126;8.710;2023-05-07T05:38:22;7.80;;;3.27;;
67156;SDS011;54086;50.126;8.710;2023-05-07T05:40:48;6.33;;;3.30;;
67156;SDS011;54086;50.126;8.710;2023-05-07T05:43:14;6.75;;;3.40;;
67156;SDS011;54086;50.126;8.710;2023-05-07T05:45:39;6.20;;;3.27;;
67156;SDS011;54086;50.126;8.710;2023-05-07T05:48:05;6.90;;;3.07;;
67156;SDS011;54086;50.126;8.710;2023-05-07T05:50:31;7.15;;;3.20;;
67156;SDS011;54086;50.126;8.710;2023-05-07T05:52:57;8.10;;;3.27;;
67156;SDS011;54086;50.126;8.710;2023-05-07T05:55:23;7.65;;;3.30;;
67156;SDS011;54086;50.126;8.710;2023-05-07T05:57:50;10.30;;;5.07;;
67156;SDS011;54086;50.126;8.710;2023-05-07T06:00:16;7.13;;;3.40;;
67156;SDS011;54086;50.126;8.710;2023-05-07T06:02:41;7.45;;;3.35;;
67156;SDS011;54086;50.126;8.710;2023-05-07T06:05:07;7.20;;;3.20;;
67156;SDS011;54086;50.126;8.710;2023-05-07T06:07:33;8.13;;;3.47;;
67156;SDS011;54086;50.126;8.710;2023-05-07T06:09:59;7.30;;;3.42;;
67156;SDS011;54086;50.126;8.710;2023-05-07T06:12:25;8.00;;;3.25;;
67156;SDS011;54086;50.126;8.710;2023-05-07T06:14:51;9.20;;;5.90;;
67156;SDS011;54086;50.126;8.710;2023-05-07T06:17:16;8.13;;;3.00;;
67156;SDS011;54086;50.126;8.710;2023-05-07T06:19:41;8.10;;;3.20;;
67156;SDS011;54086;50.126;8.710;2023-05-07T06:22:07;7.57;;;3.25;;
67156;SDS011;54086;50.126;8.710;2023-05-07T06:24:32;7.73;;;3.13;;
67156;SDS011;54086;50.126;8.710;2023-05-07T06:26:58;10.93;;;3.20;;
67156;SDS011;54086;50.126;8.710;2023-05-07T06:29:23;7.00;;;3.25;;
67156;SDS011;54086;50.126;8.710;2023-05-07T06:31:51;6.47;;;3.10;;
67156;SDS011;54086;50.126;8.710;2023-05-07T06:34:17;6.65;;;3.47;;
67156;SDS011;54086;50.126;8.710;2023-05-07T06:36:43;7.30;;;3.20;;
67156;SDS011;54086;50.126;8.710;2023-05-07T06:39:08;7.25;;;3.20;;
67156;SDS011;54086;50.126;8.710;2023-05-07T06:41:34;7.73;;;3.67;;
67156;SDS011;54086;50.126;8.710;2023-05-07T06:44:00;6.30;;;3.50;;
67156;SDS011;54086;50.126;8.710;2023-05-07T06:46:27;6.60;;;3.70;;
67156;SDS011;54086;50.126;8.710;2023-05-07T06:48:53;6.70;;;3.40;;
67156;SDS011;54086;50.126;8.710;2023-05-07T06:51:18;6.83;;;3.37;;
67156;SDS011;54086;50.126;8.710;2023-05-07T06:53:44;8.45;;;3.75;;
67156;SDS011;54086;50.126;8.710;2023-05-07T06:56:09;9.37;;;3.97;;
67156;SDS011;54086;50.126;8.710;2023-05-07T06:58:34;7.63;;;3.50;;
67156;SDS011;54086;50.126;8.710;2023-05-07T07:01:00;8.45;;;4.10;;
67156;SDS011;54086;50.126;8.710;2023-05-07T07:03:26;7.93;;;3.80;;
67156;SDS011;54086;50.126;8.710;2023-05-07T07:05:52;7.70;;;3.97;;
67156;SDS011;54086;50.126;8.710;2023-05-07T07:08:18;7.83;;;3.87;;
67156;SDS011;54086;50.126;8.710;2023-05-07T07:10:46;8.07;;;3.63;;
67156;SDS011;54086;50.126;8.710;2023-05-07T07:13:11;7.73;;;3.97;;
67156;SDS011;54086;50.126;8.710;2023-05-07T07:15:37;7.27;;;3.53;;
67156;SDS011;54086;50.126;8.710;2023-05-07T07:18:02;6.80;;;3.63;;
67156;SDS011;54086;50.126;8.710;2023-05-07T07:20:27;6.93;;;3.57;;
67156;SDS011;54086;50.126;8.710;2023-05-07T07:22:53;9.93;;;4.30;;
67156;SDS011;54086;50.126;8.710;2023-05-07T07:25:20;7.57;;;4.23;;
67156;SDS011;54086;50.126;8.710;2023-05-07T07:27:45;7.00;;;4.15;;
67156;SDS011;54086;50.126;8.710;2023-05-07T07:30:11;7.67;;;3.87;;
67156;SDS011;54086;50.126;8.710;2023-05-07T07:32:36;8.60;;;3.97;;
67156;SDS011;54086;50.126;8.710;2023-05-07T07:35:03;7.70;;;4.00;;
67156;SDS011;54086;50.126;8.710;2023-05-07T07:37:29;8.50;;;4.28;;
67156;SDS011;54086;50.126;8.710;2023-05-07T07:39:55;7.50;;;3.97;;
67156;SDS011;54086;50.126;8.710;2023-05-07T07:42:20;7.43;;;3.70;;
67156;SDS011;54086;50.126;8.710;2023-05-07T07:44:46;6.73;;;3.53;;
67156;SDS011;54086;50.126;8.710;2023-05-07T07:47:11;6.80;;;4.00;;
67156;SDS011;54086;50.126;8.710;2023-05-07T07:49:37;7.40;;;3.45;;
67156;SDS011;54086;50.126;8.710;2023-05-07T07:52:02;7.77;;;3.80;;
67156;SDS011;54086;50.126;8.710;2023-05-07T07:54:28;7.00;;;3.83;;
67156;SDS011;54086;50.126;8.710;2023-05-07T07:56:54;7.40;;;4.10;;
67156;SDS011;54086;50.126;8.710;2023-05-07T07:59:19;7.00;;;3.80;;
67156;SDS011;54086;50.126;8.710;2023-05-07T08:01:45;7.10;;;3.80;;
67156;SDS011;54086;50.126;8.710;2023-05-07T08:04:13;8.00;;;3.90;;
67156;SDS011;54086;50.126;8.710;2023-05-07T08:06:38;7.30;;;3.63;;
67156;SDS011;54086;50.126;8.710;2023-05-07T08:09:04;6.87;;;4.20;;
67156;SDS011;54086;50.126;8.710;2023-05-07T08:11:29;8.57;;;3.53;;
67156;SDS011;54086;50.126;8.710;2023-05-07T08:13:55;7.10;;;3.73;;
67156;SDS011;54086;50.126;8.710;2023-05-07T08:16:21;8.55;;;3.72;;
67156;SDS011;54086;50.126;8.710;2023-05-07T08:18:46;7.33;;;4.20;;
67156;SDS011;54086;50.126;8.710;2023-05-07T08:21:12;7.45;;;4.00;;
67156;SDS011;54086;50.126;8.710;2023-05-07T08:23:37;7.73;;;3.87;;
67156;SDS011;54086;50.126;8.710;2023-05-07T08:26:02;7.87;;;3.87;;
67156;SDS011;54086;50.126;8.710;2023-05-07T08:28:28;6.57;;;3.60;;
67156;SDS011;54086;50.126;8.710;2023-05-07T08:30:54;7.07;;;3.90;;
67156;SDS011;54086;50.126;8.710;2023-05-07T08:33:21;9.50;;;5.03;;
67156;SDS011;54086;50.126;8.710;2023-05-07T08:35:47;7.17;;;3.77;;
67156;SDS011;54086;50.126;8.710;2023-05-07T08:38:12;6.93;;;3.78;;
67156;SDS011;54086;50.126;8.710;2023-05-07T08:40:38;6.93;;;3.63;;
67156;SDS011;54086;50.126;8.710;2023-05-07T08:43:06;8.18;;;4.00;;
67156;SDS011;54086;50.126;8.710;2023-05-07T08:45:33;7.85;;;4.28;;
67156;SDS011;54086;50.126;8.710;2023-05-07T08:47:59;8.00;;;3.70;;
67156;SDS011;54086;50.126;8.710;2023-05-07T08:50:28;6.90;;;3.90;;
67156;SDS011;54086;50.126;8.710;2023-05-07T08:52:54;8.27;;;4.10;;
67156;SDS011;54086;50.126;8.710;2023-05-07T08:55:22;8.43;;;3.85;;
67156;SDS011;54086;50.126;8.710;2023-05-07T08:57:50;7.32;;;3.72;;
67156;SDS011;54086;50.126;8.710;2023-05-07T09:00:17;8.57;;;4.30;;
67156;SDS011;54086;50.126;8.710;2023-05-07T09:02:43;8.25;;;4.15;;
67156;SDS011;54086;50.126;8.710;2023-05-07T09:05:09;7.70;;;4.03;;
67156;SDS011;54086;50.126;8.710;2023-05-07T09:07:34;6.82;;;3.95;;
67156;SDS011;54086;50.126;8.710;2023-05-07T09:10:03;8.47;;;4.33;;
67156;SDS011;54086;50.126;8.710;2023-05-07T09:12:30;7.22;;;3.95;;
67156;SDS011;54086;50.126;8.710;2023-05-07T09:14:56;6.73;;;3.97;;
67156;SDS011;54086;50.126;8.710;2023-05-07T09:17:22;7.30;;;4.47;;
67156;SDS011;54086;50.126;8.710;2023-05-07T09:19:47;7.50;;;4.40;;
67156;SDS011;54086;50.126;8.710;2023-05-07T09:22:13;9.27;;;3.90;;
67156;SDS011;54086;50.126;8.710;2023-05-07T09:24:39;7.97;;;4.70;;
67156;SDS011;54086;50.126;8.710;2023-05-07T09:27:06;7.20;;;4.38;;
67156;SDS011;54086;50.126;8.710;2023-05-07T09:29:33;7.93;;;4.00;;
67156;SDS011;54086;50.126;8.710;2023-05-07T09:32:02;7.23;;;3.80;;
67156;SDS011;54086;50.126;8.710;2023-05-07T09:34:32;7.40;;;4.18;;
67156;SDS011;54086;50.126;8.710;2023-05-07T09:36:58;7.57;;;4.20;;
67156;SDS011;54086;50.126;8.710;2023-05-07T09:39:25;6.90;;;3.90;;
67156;SDS011;54086;50.126;8.710;2023-05-07T09:41:51;7.80;;;4.33;;
67156;SDS011;54086;50.126;8.710;2023-05-07T09:44:19;7.53;;;4.28;;
67156;SDS011;54086;50.126;8.710;2023-05-07T09:46:47;7.70;;;4.10;;
67156;SDS011;54086;50.126;8.710;2023-05-07T09:49:22;6.80;;;4.30;;
67156;SDS011;54086;50.126;8.710;2023-05-07T09:51:52;8.13;;;4.43;;
67156;SDS011;54086;50.126;8.710;2023-05-07T09:54:18;8.55;;;4.30;;
67156;SDS011;54086;50.126;8.710;2023-05-07T09:56:50;8.52;;;4.10;;
67156;SDS011;54086;50.126;8.710;2023-05-07T09:59:17;7.38;;;4.18;;
67156;SDS011;54086;50.126;8.710;2023-05-07T10:01:44;8.50;;;4.63;;
67156;SDS011;54086;50.126;8.710;2023-05-07T10:04:11;8.73;;;4.70;;
67156;SDS011;54086;50.126;8.710;2023-05-07T10:06:37;8.05;;;4.88;;
67156;SDS011;54086;50.126;8.710;2023-05-07T10:09:03;9.20;;;4.88;;
67156;SDS011;54086;50.126;8.710;2023-05-07T10:11:34;7.68;;;4.45;;
67156;SDS011;54086;50.126;8.710;2023-05-07T10:14:05;7.47;;;4.55;;
67156;SDS011;54086;50.126;8.710;2023-05-07T10:16:32;7.93;;;4.33;;
67156;SDS011;54086;50.126;8.710;2023-05-07T10:19:04;8.55;;;4.53;;
67156;SDS011;54086;50.126;8.710;2023-05-07T10:21:32;7.85;;;4.50;;
67156;SDS011;54086;50.126;8.710;2023-05-07T10:26:39;10.27;;;3.70;;
67156;SDS011;54086;50.126;8.710;2023-05-07T10:29:14;7.03;;;4.00;;
67156;SDS011;54086;50.126;8.710;2023-05-07T10:34:28;7.95;;;3.90;;
67156;SDS011;54086;50.126;8.710;2023-05-07T10:37:01;7.03;;;4.07;;
67156;SDS011;54086;50.126;8.710;2023-05-07T10:39:28;6.97;;;3.77;;
67156;SDS011;54086;50.126;8.710;2023-05-07T10:41:54;8.35;;;4.15;;
67156;SDS011;54086;50.126;8.710;2023-05-07T10:44:27;7.07;;;4.32;;
67156;SDS011;54086;50.126;8.710;2023-05-07T10:52:15;9.65;;;4.85;;
67156;SDS011;54086;50.126;8.710;2023-05-07T10:54:46;8.85;;;4.43;;
67156;SDS011;54086;50.126;8.710;2023-05-07T11:00:40;8.82;;;4.63;;
67156;SDS011;54086;50.126;8.710;2023-05-07T11:05:31;6.13;;;3.50;;
67156;SDS011;54086;50.126;8.710;2023-05-07T11:08:01;8.95;;;3.95;;
67156;SDS011;54086;50.126;8.710;2023-05-07T11:16:16;7.65;;;4.05;;
67156;SDS011;54086;50.126;8.710;2023-05-07T11:18:49;7.73;;;3.87;;
67156;SDS011;54086;50.126;8.710;2023-05-07T11:24:14;6.93;;;3.90;;
67156;SDS011;54086;50.126;8.710;2023-05-07T11:26:49;6.88;;;3.08;;
67156;SDS011;54086;50.126;8.710;2023-05-07T11:29:18;7.32;;;2.92;;
67156;SDS011;54086;50.126;8.710;2023-05-07T11:31:56;8.80;;;3.40;;
67156;SDS011;54086;50.126;8.710;2023-05-07T11:34:23;7.35;;;2.88;;
67156;SDS011;54086;50.126;8.710;2023-05-07T11:36:50;6.63;;;3.65;;
67156;SDS011;54086;50.126;8.710;2023-05-07T11:39:26;5.82;;;2.65;;
67156;SDS011;54086;50.126;8.710;2023-05-07T11:41:53;7.07;;;2.80;;
67156;SDS011;54086;50.126;8.710;2023-05-07T11:44:18;7.10;;;2.53;;
67156;SDS011;54086;50.126;8.710;2023-05-07T11:46:43;9.03;;;4.23;;
67156;SDS011;54086;50.126;8.710;2023-05-07T11:49:10;6.28;;;2.60;;
67156;SDS011;54086;50.126;8.710;2023-05-07T11:51:35;6.07;;;2.60;;
67156;SDS011;54086;50.126;8.710;2023-05-07T11:54:03;6.53;;;3.00;;
67156;SDS011;54086;50.126;8.710;2023-05-07T11:56:33;6.03;;;2.20;;
67156;SDS011;54086;50.126;8.710;2023-05-07T11:59:00;5.97;;;2.10;;
67156;SDS011;54086;50.126;8.710;2023-05-07T12:01:26;5.15;;;2.25;;
67156;SDS011;54086;50.126;8.710;2023-05-07T12:03:52;7.10;;;3.22;;
67156;SDS011;54086;50.126;8.710;2023-05-07T12:06:17;5.83;;;2.40;;
67156;SDS011;54086;50.126;8.710;2023-05-07T12:08:54;6.40;;;2.72;;
67156;SDS011;54086;50.126;8.710;2023-05-07T12:11:23;5.63;;;2.27;;
67156;SDS011;54086;50.126;8.710;2023-05-07T12:13:54;5.33;;;2.30;;
67156;SDS011;54086;50.126;8.710;2023-05-07T12:16:20;6.28;;;2.22;;
67156;SDS011;54086;50.126;8.710;2023-05-07T12:18:47;4.57;;;2.22;;
67156;SDS011;54086;50.126;8.710;2023-05-07T12:21:13;5.43;;;2.60;;
67156;SDS011;54086;50.126;8.710;2023-05-07T12:23:39;7.93;;;3.83;;
67156;SDS011;54086;50.126;8.710;2023-05-07T12:26:05;6.90;;;2.72;;
67156;SDS011;54086;50.126;8.710;2023-05-07T12:28:31;5.77;;;2.50;;
67156;SDS011;54086;50.126;8.710;2023-05-07T12:31:02;5.43;;;2.40;;
67156;SDS011;54086;50.126;8.710;2023-05-07T12:33:28;6.80;;;2.90;;
67156;SDS011;54086;50.126;8.710;2023-05-07T12:35:56;5.70;;;2.22;;
67156;SDS011;54086;50.126;8.710;2023-05-07T12:38:21;6.30;;;2.87;;
67156;SDS011;54086;50.126;8.710;2023-05-07T12:40:48;6.25;;;2.38;;
67156;SDS011;54086;50.126;8.710;2023-05-07T12:43:19;6.90;;;2.42;;
67156;SDS011;54086;50.126;8.710;2023-05-07T12:45:49;6.35;;;3.28;;
67156;SDS011;54086;50.126;8.710;2023-05-07T12:48:15;6.05;;;3.13;;
67156;SDS011;54086;50.126;8.710;2023-05-07T12:50:41;8.23;;;2.67;;
67156;SDS011;54086;50.126;8.710;2023-05-07T12:53:08;5.83;;;2.70;;
67156;SDS011;54086;50.126;8.710;2023-05-07T12:55:46;6.03;;;2.83;;
67156;SDS011;54086;50.126;8.710;2023-05-07T12:58:20;5.20;;;2.25;;
67156;SDS011;54086;50.126;8.710;2023-05-07T13:00:53;5.95;;;2.75;;
67156;SDS011;54086;50.126;8.710;2023-05-07T13:03:23;6.93;;;2.80;;
67156;SDS011;54086;50.126;8.710;2023-05-07T13:05:54;5.90;;;2.53;;
67156;SDS011;54086;50.126;8.710;2023-05-07T13:08:27;7.63;;;2.53;;
67156;SDS011;54086;50.126;8.710;2023-05-07T13:10:59;5.65;;;2.40;;
67156;SDS011;54086;50.126;8.710;2023-05-07T13:13:31;8.13;;;2.80;;
67156;SDS011;54086;50.126;8.710;2023-05-07T13:15:58;5.28;;;2.28;;
67156;SDS011;54086;50.126;8.710;2023-05-07T13:18:25;6.10;;;2.78;;
67156;SDS011;54086;50.126;8.710;2023-05-07T13:20:51;6.63;;;2.67;;
67156;SDS011;54086;50.126;8.710;2023-05-07T13:23:17;6.73;;;3.20;;
67156;SDS011;54086;50.126;8.710;2023-05-07T13:25:42;7.55;;;3.88;;
67156;SDS011;54086;50.126;8.710;2023-05-07T13:28:08;6.93;;;3.20;;
67156;SDS011;54086;50.126;8.710;2023-05-07T13:30:34;6.53;;;3.50;;
67156;SDS011;54086;50.126;8.710;2023-05-07T13:33:00;8.00;;;3.33;;
67156;SDS011;54086;50.126;8.710;2023-05-07T13:35:25;8.15;;;3.50;;
67156;SDS011;54086;50.126;8.710;2023-05-07T13:37:51;6.20;;;3.20;;
67156;SDS011;54086;50.126;8.710;2023-05-07T13:40:17;6.63;;;3.17;;
67156;SDS011;54086;50.126;8.710;2023-05-07T13:42:44;6.60;;;3.20;;
67156;SDS011;54086;50.126;8.710;2023-05-07T13:45:10;6.57;;;2.78;;
67156;SDS011;54086;50.126;8.710;2023-05-07T13:47:39;6.33;;;3.20;;
67156;SDS011;54086;50.126;8.710;2023-05-07T13:50:06;6.27;;;2.83;;
67156;SDS011;54086;50.126;8.710;2023-05-07T13:52:32;5.53;;;2.90;;
67156;SDS011;54086;50.126;8.710;2023-05-07T13:54:57;7.00;;;2.77;;
67156;SDS011;54086;50.126;8.710;2023-05-07T13:57:24;6.15;;;3.08;;
67156;SDS011;54086;50.126;8.710;2023-05-07T13:59:49;6.20;;;2.83;;
67156;SDS011;54086;50.126;8.710;2023-05-07T14:02:15;6.03;;;2.90;;
67156;SDS011;54086;50.126;8.710;2023-05-07T14:04:40;6.00;;;2.90;;
67156;SDS011;54086;50.126;8.710;2023-05-07T14:07:06;8.87;;;2.90;;
67156;SDS011;54086;50.126;8.710;2023-05-07T14:09:32;7.07;;;3.30;;
67156;SDS011;54086;50.126;8.710;2023-05-07T14:11:58;7.93;;;2.60;;
67156;SDS011;54086;50.126;8.710;2023-05-07T14:14:23;5.70;;;2.65;;
67156;SDS011;54086;50.126;8.710;2023-05-07T14:16:49;6.23;;;2.97;;
67156;SDS011;54086;50.126;8.710;2023-05-07T14:19:14;6.10;;;2.95;;
67156;SDS011;54086;50.126;8.710;2023-05-07T14:21:40;6.33;;;3.17;;
67156;SDS011;54086;50.126;8.710;2023-05-07T14:24:06;6.97;;;3.53;;
67156;SDS011;54086;50.126;8.710;2023-05-07T14:26:33;7.90;;;3.35;;
67156;SDS011;54086;50.126;8.710;2023-05-07T14:28:59;6.33;;;3.40;;
67156;SDS011;54086;50.126;8.710;2023-05-07T14:31:26;7.85;;;3.42;;
67156;SDS011;54086;50.126;8.710;2023-05-07T14:33:51;7.13;;;3.20;;
67156;SDS011;54086;50.126;8.710;2023-05-07T14:36:19;8.53;;;2.83;;
67156;SDS011;54086;50.126;8.710;2023-05-07T14:38:46;8.25;;;3.17;;
67156;SDS011;54086;50.126;8.710;2023-05-07T14:41:12;7.13;;;3.20;;
67156;SDS011;54086;50.126;8.710;2023-05-07T14:43:37;6.90;;;3.00;;
67156;SDS011;54086;50.126;8.710;2023-05-07T14:46:03;6.47;;;3.30;;
67156;SDS011;54086;50.126;8.710;2023-05-07T14:48:28;8.10;;;3.30;;
67156;SDS011;54086;50.126;8.710;2023-05-07T14:50:54;6.47;;;3.70;;
67156;SDS011;54086;50.126;8.710;2023-05-07T14:53:19;6.72;;;2.70;;
67156;SDS011;54086;50.126;8.710;2023-05-07T14:55:46;6.90;;;3.10;;
67156;SDS011;54086;50.126;8.710;2023-05-07T14:58:12;6.95;;;3.15;;
67156;SDS011;54086;50.126;8.710;2023-05-07T15:00:38;6.68;;;3.10;;
67156;SDS011;54086;50.126;8.710;2023-05-07T15:03:07;7.00;;;2.67;;
67156;SDS011;54086;50.126;8.710;2023-05-07T15:05:35;6.45;;;3.05;;
67156;SDS011;54086;50.126;8.710;2023-05-07T15:08:01;6.35;;;2.88;;
67156;SDS011;54086;50.126;8.710;2023-05-07T15:10:29;6.33;;;2.90;;